createdAt,value
2023-05-08T00:01:20.619Z,77.90
2023-05-08T00:03:48.760Z,78.00
2023-05-08T00:06:16.862Z,78.00
2023-05-08T00:08:44.839Z,78.20
2023-05-08T00:11:12.724Z,78.20
2023-05-08T00:13:41.963Z,78.00
2023-05-08T00:16:09.905Z,77.70
2023-05-08T00:18:39.116Z,77.40
2023-05-08T00:21:08.032Z,77.80
2023-05-08T00:23:36.093Z,77.80
2023-05-08T00:26:03.891Z,76.60
2023-05-08T00:28:31.931Z,76.90
2023-05-08T00:31:02.742Z,77.60
2023-05-08T00:33:31.082Z,79.50
2023-05-08T00:36:02.830Z,81.00
2023-05-08T00:38:35.503Z,83.20
2023-05-08T00:41:05.092Z,84.20
2023-05-08T00:43:34.060Z,85.80
2023-05-08T00:46:04.464Z,86.50
2023-05-08T00:48:35.479Z,86.90
2023-05-08T00:51:07.957Z,86.90
2023-05-08T00:53:43.400Z,87.10
2023-05-08T00:56:13.759Z,88.10
2023-05-08T00:58:42.919Z,88.40
2023-05-08T01:01:12.237Z,88.70
2023-05-08T01:03:41.073Z,89.00
2023-05-08T01:06:10.024Z,89.10
2023-05-08T01:08:38.221Z,89.20
2023-05-08T01:11:27.561Z,89.10
2023-05-08T01:14:08.248Z,88.90
2023-05-08T01:16:57.157Z,88.70
2023-05-08T01:19:43.363Z,88.60
2023-05-08T01:22:35.284Z,88.60
2023-05-08T01:25:24.837Z,88.60
2023-05-08T01:28:14.000Z,88.60
2023-05-08T01:30:42.261Z,87.10
2023-05-08T01:33:18.915Z,87.00
2023-05-08T01:35:52.721Z,87.00
2023-05-08T01:38:32.571Z,87.30
2023-05-08T01:41:00.454Z,87.30
2023-05-08T01:43:34.564Z,87.20
2023-05-08T01:46:10.028Z,87.20
2023-05-08T01:48:57.349Z,86.70
2023-05-08T01:51:28.224Z,86.80
2023-05-08T01:54:10.098Z,86.60
2023-05-08T01:56:39.704Z,86.70
2023-05-08T01:59:09.648Z,86.80
2023-05-08T02:01:37.709Z,86.50
2023-05-08T02:04:07.800Z,86.50
2023-05-08T02:06:39.425Z,86.70
2023-05-08T02:09:10.504Z,86.60
2023-05-08T02:11:40.305Z,86.40
2023-05-08T02:14:09.876Z,85.90
2023-05-08T02:16:40.889Z,85.80
2023-05-08T02:19:11.067Z,85.30
2023-05-08T02:21:40.930Z,84.70
2023-05-08T02:24:10.328Z,84.80
2023-05-08T02:26:39.948Z,85.00
2023-05-08T02:29:09.204Z,85.00
2023-05-08T02:31:38.897Z,85.30
2023-05-08T02:34:09.748Z,85.20
2023-05-08T02:36:40.087Z,85.30
2023-05-08T02:39:12.526Z,83.70
2023-05-08T02:41:42.733Z,84.10
2023-05-08T02:44:11.602Z,84.00
2023-05-08T02:47:07.769Z,84.00
2023-05-08T02:50:04.174Z,83.60
2023-05-08T02:52:40.104Z,83.50
2023-05-08T02:55:19.954Z,83.50
2023-05-08T02:58:08.322Z,83.40
2023-05-08T03:00:48.009Z,83.10
2023-05-08T03:03:23.590Z,83.40
2023-05-08T03:05:57.830Z,83.30
2023-05-08T03:08:33.278Z,83.60
2023-05-08T03:11:08.461Z,84.10
2023-05-08T03:13:39.397Z,84.40
2023-05-08T03:16:11.422Z,84.90
2023-05-08T03:18:48.041Z,85.50
2023-05-08T03:21:20.076Z,86.60
2023-05-08T03:23:50.694Z,86.80
2023-05-08T03:26:20.080Z,86.80
2023-05-08T03:28:53.180Z,87.00
2023-05-08T03:31:26.211Z,87.80
2023-05-08T03:33:56.106Z,88.10
2023-05-08T03:36:27.657Z,88.10
2023-05-08T03:38:56.283Z,88.50
2023-05-08T03:41:26.641Z,88.60
2023-05-08T03:43:56.348Z,88.80
2023-05-08T03:46:27.101Z,88.50
2023-05-08T03:48:58.252Z,88.30
2023-05-08T03:51:29.180Z,88.40
2023-05-08T03:53:58.393Z,88.00
2023-05-08T03:56:26.484Z,88.00
2023-05-08T03:59:18.644Z,87.80
2023-05-08T04:02:00.829Z,88.00
2023-05-08T04:04:40.545Z,87.90
2023-05-08T04:07:23.349Z,87.70
2023-05-08T04:10:17.036Z,87.70
2023-05-08T04:12:56.686Z,87.80
2023-05-08T04:15:31.989Z,87.70
2023-05-08T04:18:10.305Z,87.30
2023-05-08T04:20:42.316Z,87.30
2023-05-08T04:23:17.733Z,87.00
2023-05-08T04:25:54.376Z,86.90
2023-05-08T04:28:23.173Z,86.90
2023-05-08T04:30:52.636Z,86.90
2023-05-08T04:33:21.721Z,87.10
2023-05-08T04:35:50.696Z,87.40
2023-05-08T04:38:19.626Z,87.60
2023-05-08T04:40:47.398Z,87.80
2023-05-08T04:43:16.440Z,87.70
2023-05-08T04:45:45.995Z,87.50
2023-05-08T04:48:14.719Z,87.40
2023-05-08T04:50:42.609Z,87.40
2023-05-08T04:53:10.945Z,87.70
2023-05-08T04:55:38.881Z,87.80
2023-05-08T04:58:07.143Z,87.90
2023-05-08T05:00:36.003Z,88.00
2023-05-08T05:03:05.159Z,88.20
2023-05-08T05:05:36.963Z,88.30
2023-05-08T05:08:07.149Z,88.40
2023-05-08T05:10:34.962Z,88.50
2023-05-08T05:13:03.138Z,88.30
2023-05-08T05:15:32.142Z,87.70
2023-05-08T05:18:00.416Z,87.30
2023-05-08T05:20:29.155Z,87.40
2023-05-08T05:22:58.419Z,88.70
2023-05-08T05:25:26.864Z,88.50
2023-05-08T05:27:55.031Z,88.60
2023-05-08T05:30:23.131Z,88.00
2023-05-08T05:32:51.423Z,88.10
2023-05-08T05:35:19.506Z,88.50
2023-05-08T05:37:47.773Z,88.80
2023-05-08T05:40:15.792Z,89.30
2023-05-08T05:42:50.545Z,90.40
2023-05-08T05:45:20.586Z,90.60
2023-05-08T05:47:50.783Z,91.10
2023-05-08T05:50:22.920Z,91.20
2023-05-08T05:52:52.077Z,91.60
2023-05-08T05:55:21.427Z,91.20
2023-05-08T05:57:49.717Z,91.00
2023-05-08T06:00:18.140Z,91.40
2023-05-08T06:02:50.556Z,90.80
2023-05-08T06:05:21.806Z,90.90
2023-05-08T06:07:50.606Z,86.10
2023-05-08T06:10:18.577Z,86.30
2023-05-08T06:12:47.961Z,86.60
2023-05-08T06:15:16.910Z,88.50
2023-05-08T06:17:47.848Z,91.20
2023-05-08T06:20:16.266Z,93.00
2023-05-08T06:22:45.583Z,94.10
2023-05-08T06:25:14.176Z,95.20
2023-05-08T06:27:42.360Z,94.80
2023-05-08T06:30:11.354Z,93.80
2023-05-08T06:32:39.267Z,93.90
2023-05-08T06:35:08.305Z,94.60
2023-05-08T06:37:36.430Z,93.40
2023-05-08T06:40:12.309Z,92.60
2023-05-08T06:42:42.091Z,92.10
2023-05-08T06:45:11.250Z,91.80
2023-05-08T06:47:39.833Z,91.60
2023-05-08T06:50:08.093Z,91.80
2023-05-08T06:52:36.356Z,91.90
2023-05-08T06:55:04.453Z,91.90
2023-05-08T06:57:32.594Z,91.70
2023-05-08T07:00:00.436Z,91.00
2023-05-08T07:02:28.707Z,90.60
2023-05-08T07:04:56.736Z,90.10
2023-05-08T07:07:24.873Z,90.20
2023-05-08T07:09:53.251Z,90.00
2023-05-08T07:12:21.348Z,89.70
2023-05-08T07:14:52.133Z,89.20
2023-05-08T07:17:20.442Z,88.90
2023-05-08T07:19:52.384Z,87.80
2023-05-08T07:22:21.771Z,87.10
2023-05-08T07:24:49.875Z,86.90
2023-05-08T07:27:17.891Z,85.90
2023-05-08T07:29:45.860Z,83.80
2023-05-08T07:32:13.945Z,84.40
2023-05-08T07:34:42.411Z,82.60
2023-05-08T07:37:10.716Z,81.60
2023-05-08T07:39:38.463Z,82.20
2023-05-08T07:42:06.707Z,82.00
2023-05-08T07:44:43.681Z,80.80
2023-05-08T07:47:22.094Z,79.10
2023-05-08T07:49:49.945Z,78.80
2023-05-08T07:52:17.891Z,77.70
2023-05-08T07:54:46.451Z,77.50
2023-05-08T07:57:14.724Z,77.40
2023-05-08T07:59:42.821Z,78.00
2023-05-08T08:02:10.990Z,77.60
2023-05-08T08:04:38.834Z,78.40
2023-05-08T08:07:06.985Z,78.90
2023-05-08T08:09:34.716Z,79.50
2023-05-08T08:12:03.724Z,79.50
2023-05-08T08:14:31.782Z,79.80
2023-05-08T08:16:59.931Z,80.60
2023-05-08T08:19:27.999Z,81.20
2023-05-08T08:21:58.871Z,82.20
2023-05-08T08:24:27.138Z,83.00
2023-05-08T08:26:55.250Z,83.20
2023-05-08T08:29:23.349Z,83.70
2023-05-08T08:31:51.435Z,83.00
2023-05-08T08:34:19.714Z,82.90
2023-05-08T08:36:47.714Z,83.30
2023-05-08T08:39:15.956Z,82.80
2023-05-08T08:41:44.108Z,82.60
2023-05-08T08:44:12.276Z,81.90
2023-05-08T08:46:50.948Z,81.60
2023-05-08T08:49:22.378Z,81.40
2023-05-08T08:51:56.155Z,81.30
2023-05-08T08:54:32.015Z,82.30
2023-05-08T08:57:08.586Z,83.20
2023-05-08T08:59:39.675Z,83.50
2023-05-08T09:02:12.226Z,83.90
2023-05-08T09:04:40.377Z,84.00
2023-05-08T09:07:09.676Z,84.70
2023-05-08T09:09:45.256Z,84.70
2023-05-08T09:12:16.168Z,86.80
2023-05-08T09:14:44.833Z,87.00
2023-05-08T09:17:12.910Z,87.50
2023-05-08T09:19:41.852Z,88.30
2023-05-08T09:22:11.296Z,88.90
2023-05-08T09:24:59.067Z,89.50
2023-05-08T09:27:29.309Z,89.40
2023-05-08T09:30:08.613Z,89.30
2023-05-08T09:32:39.311Z,89.20
2023-05-08T09:35:09.106Z,88.80
2023-05-08T09:37:44.164Z,89.00
2023-05-08T09:40:21.441Z,88.60
2023-05-08T09:42:51.308Z,88.00
2023-05-08T09:45:32.129Z,87.50
2023-05-08T09:48:00.934Z,86.20
2023-05-08T09:50:28.857Z,83.70
2023-05-08T09:52:56.953Z,80.80
2023-05-08T09:55:25.185Z,77.70
2023-05-08T09:58:02.735Z,77.50
2023-05-08T10:00:39.702Z,77.70
2023-05-08T10:03:07.921Z,77.20
2023-05-08T10:05:38.810Z,80.30
2023-05-08T10:08:24.032Z,81.00
2023-05-08T10:10:52.479Z,84.40
2023-05-08T10:13:20.342Z,87.90
2023-05-08T10:15:55.519Z,89.60
2023-05-08T10:18:28.036Z,90.50
2023-05-08T10:20:58.596Z,91.30
2023-05-08T10:23:27.640Z,92.00
2023-05-08T10:26:00.605Z,92.10
2023-05-08T10:28:50.636Z,92.10
2023-05-08T10:31:22.113Z,92.20
2023-05-08T10:33:52.203Z,92.10
2023-05-08T10:36:21.359Z,92.20
2023-05-08T10:38:50.900Z,93.00
2023-05-08T10:41:22.150Z,93.60
2023-05-08T10:43:51.543Z,94.00
2023-05-08T10:46:34.656Z,94.30
2023-05-08T10:49:15.502Z,94.80
2023-05-08T10:51:48.374Z,94.40
2023-05-08T10:54:28.642Z,94.70
2023-05-08T10:57:10.897Z,95.20
2023-05-08T10:59:39.747Z,95.40
2023-05-08T11:02:08.874Z,95.20
2023-05-08T11:04:37.337Z,95.40
2023-05-08T11:07:05.824Z,94.40
2023-05-08T11:09:43.646Z,93.70
2023-05-08T11:12:21.711Z,93.70
2023-05-08T11:15:07.763Z,93.10
2023-05-08T11:17:36.428Z,93.50
2023-05-08T11:20:07.281Z,91.80
2023-05-08T11:22:37.500Z,91.80
2023-05-08T11:25:07.298Z,91.80
2023-05-08T11:27:50.359Z,92.70
2023-05-08T11:30:39.542Z,93.40
2023-05-08T11:33:07.769Z,93.10
2023-05-08T11:35:42.388Z,94.20
2023-05-08T11:38:37.115Z,94.40
2023-05-08T11:41:12.376Z,94.90
2023-05-08T11:43:55.402Z,94.40
2023-05-08T11:46:33.953Z,94.30
2023-05-08T11:49:02.498Z,94.20
2023-05-08T11:51:34.416Z,94.30
2023-05-08T11:54:02.952Z,94.30
2023-05-08T11:56:34.109Z,94.10
2023-05-08T11:59:10.071Z,93.80
2023-05-08T12:01:38.395Z,94.40
2023-05-08T12:04:11.870Z,95.30
2023-05-08T12:06:42.118Z,96.10
2023-05-08T12:09:15.817Z,95.80
2023-05-08T12:11:45.994Z,96.10
2023-05-08T12:14:17.630Z,96.40
2023-05-08T12:16:45.744Z,96.70
2023-05-08T12:19:14.656Z,96.10
2023-05-08T12:21:49.547Z,95.40
2023-05-08T12:24:27.672Z,95.10
2023-05-08T12:26:56.846Z,94.30
2023-05-08T12:29:27.762Z,93.80
2023-05-08T12:31:56.233Z,93.70
2023-05-08T12:34:24.749Z,93.20
2023-05-08T12:37:03.676Z,91.80
2023-05-08T12:39:38.080Z,92.00
2023-05-08T12:42:06.661Z,90.70
2023-05-08T12:44:34.860Z,86.70
2023-05-08T12:47:03.313Z,85.30
2023-05-08T12:49:32.456Z,83.60
2023-05-08T12:52:14.564Z,82.80
2023-05-08T12:54:48.933Z,83.70
2023-05-08T12:57:21.751Z,80.20
2023-05-08T12:59:49.801Z,82.00
2023-05-08T13:02:24.460Z,82.60
2023-05-08T13:04:56.586Z,82.00
2023-05-08T13:07:25.085Z,82.00
2023-05-08T13:10:03.959Z,78.90
2023-05-08T13:12:33.098Z,80.50
2023-05-08T13:15:01.636Z,79.80
2023-05-08T13:17:30.068Z,79.50
2023-05-08T13:19:58.517Z,80.80
2023-05-08T13:22:27.164Z,80.00
2023-05-08T13:24:55.304Z,80.70
2023-05-08T13:27:23.908Z,81.20
2023-05-08T13:29:51.734Z,82.10
2023-05-08T13:32:20.041Z,80.00
2023-05-08T13:34:51.083Z,80.10
2023-05-08T13:37:21.308Z,82.00
2023-05-08T13:39:51.256Z,82.20
2023-05-08T13:42:19.727Z,82.40
2023-05-08T13:44:47.983Z,83.90
2023-05-08T13:47:16.393Z,79.80
2023-05-08T13:49:45.558Z,79.80
2023-05-08T13:52:13.620Z,79.20
2023-05-08T13:54:42.175Z,77.90
2023-05-08T13:57:10.332Z,78.80
2023-05-08T13:59:38.316Z,80.80
2023-05-08T14:02:07.345Z,80.90
2023-05-08T14:04:35.191Z,81.10
2023-05-08T14:07:03.578Z,79.60
2023-05-08T14:09:31.577Z,79.20
2023-05-08T14:11:59.719Z,79.80
2023-05-08T14:14:27.639Z,81.80
2023-05-08T14:16:56.110Z,82.30
2023-05-08T14:19:24.057Z,81.30
2023-05-08T14:21:52.440Z,81.20
2023-05-08T14:24:20.411Z,82.10
2023-05-08T14:26:48.705Z,81.40
2023-05-08T14:29:17.816Z,81.30
2023-05-08T14:31:46.757Z,81.90
2023-05-08T14:34:14.612Z,82.00
2023-05-08T14:36:42.736Z,82.80
2023-05-08T14:39:10.908Z,82.60
2023-05-08T14:41:40.057Z,83.30
2023-05-08T14:44:07.949Z,84.40
2023-05-08T14:46:36.190Z,85.10
2023-05-08T14:49:04.094Z,86.00
2023-05-08T14:51:32.293Z,86.60
2023-05-08T14:54:00.504Z,88.10
2023-05-08T14:56:34.584Z,88.30
2023-05-08T14:59:10.233Z,89.10
2023-05-08T15:01:42.010Z,89.50
2023-05-08T15:04:11.947Z,89.10
2023-05-08T15:06:42.648Z,89.60
2023-05-08T15:09:11.135Z,90.20
2023-05-08T15:11:39.149Z,88.50
2023-05-08T15:14:07.645Z,89.10
2023-05-08T15:16:35.740Z,88.30
2023-05-08T15:19:04.194Z,88.50
2023-05-08T15:21:32.397Z,87.60
2023-05-08T15:24:00.703Z,87.80
2023-05-08T15:26:28.958Z,88.80
2023-05-08T15:28:56.920Z,88.00
2023-05-08T15:31:25.202Z,88.50
2023-05-08T15:33:53.749Z,88.80
2023-05-08T15:36:21.901Z,90.00
2023-05-08T15:38:49.705Z,89.80
2023-05-08T15:41:17.941Z,89.50
2023-05-08T15:43:47.180Z,89.70
2023-05-08T15:46:15.734Z,90.10
2023-05-08T15:48:43.998Z,90.20
2023-05-08T15:51:12.220Z,90.40
2023-05-08T15:53:40.032Z,90.20
2023-05-08T15:56:08.307Z,90.20
2023-05-08T15:58:39.293Z,90.50
2023-05-08T16:01:07.388Z,90.70
2023-05-08T16:03:35.606Z,91.00
2023-05-08T16:06:04.115Z,91.60
2023-05-08T16:08:33.137Z,91.90
2023-05-08T16:11:02.345Z,91.80
2023-05-08T16:13:30.845Z,92.20
2023-05-08T16:16:08.013Z,92.40
2023-05-08T16:18:36.276Z,92.60
2023-05-08T16:21:13.710Z,93.10
2023-05-08T16:23:41.848Z,93.40
2023-05-08T16:26:09.656Z,93.70
2023-05-08T16:28:37.950Z,94.20
2023-05-08T16:31:07.974Z,94.60
2023-05-08T16:33:36.117Z,94.80
2023-05-08T16:36:04.218Z,95.00
2023-05-08T16:38:32.477Z,95.10
2023-05-08T16:41:04.753Z,95.60
2023-05-08T16:43:32.960Z,96.10
2023-05-08T16:46:00.906Z,96.70
2023-05-08T16:48:29.581Z,97.30
2023-05-08T16:50:57.601Z,98.10
2023-05-08T16:53:27.692Z,98.60
2023-05-08T16:55:56.553Z,99.30
2023-05-08T16:58:27.453Z,99.90
2023-05-08T17:00:55.707Z,99.90
2023-05-08T17:03:24.161Z,99.90
2023-05-08T17:05:52.289Z,99.90
2023-05-08T17:08:22.984Z,99.90
2023-05-08T17:10:52.383Z,99.90
2023-05-08T17:13:20.294Z,99.90
2023-05-08T17:15:48.496Z,99.90
2023-05-08T17:18:16.627Z,99.90
2023-05-08T17:20:44.677Z,99.90
2023-05-08T17:23:12.570Z,99.90
2023-05-08T17:25:40.911Z,99.90
2023-05-08T17:28:08.990Z,99.90
2023-05-08T17:30:37.161Z,99.90
2023-05-08T17:33:05.608Z,99.90
2023-05-08T17:35:34.665Z,99.90
2023-05-08T17:38:02.863Z,99.90
2023-05-08T17:40:32.242Z,99.90
2023-05-08T17:43:00.578Z,99.90
2023-05-08T17:45:29.023Z,99.90
2023-05-08T17:47:57.236Z,99.90
2023-05-08T17:50:25.439Z,99.90
2023-05-08T17:52:53.566Z,99.90
2023-05-08T17:55:22.020Z,99.90
2023-05-08T17:57:50.297Z,99.90
2023-05-08T18:00:18.735Z,99.90
2023-05-08T18:02:47.189Z,99.90
2023-05-08T18:05:16.356Z,99.90
2023-05-08T18:07:44.617Z,99.90
2023-05-08T18:10:13.640Z,99.90
2023-05-08T18:12:41.924Z,99.90
2023-05-08T18:15:10.360Z,99.90
2023-05-08T18:17:38.449Z,99.90
2023-05-08T18:20:08.325Z,99.90
2023-05-08T18:22:36.909Z,99.90
2023-05-08T18:25:05.903Z,99.90
2023-05-08T18:27:34.876Z,99.90
2023-05-08T18:30:02.778Z,99.90
2023-05-08T18:32:31.045Z,99.90
2023-05-08T18:34:59.189Z,99.90
2023-05-08T18:37:27.650Z,99.90
2023-05-08T18:39:56.194Z,99.90
2023-05-08T18:42:24.647Z,99.90
2023-05-08T18:44:52.485Z,99.90
2023-05-08T18:47:20.771Z,99.90
2023-05-08T18:49:50.779Z,99.90
2023-05-08T18:52:18.950Z,99.90
2023-05-08T18:54:47.050Z,99.90
2023-05-08T18:57:15.176Z,99.90
2023-05-08T18:59:43.341Z,99.90
2023-05-08T19:02:11.824Z,99.90
2023-05-08T19:04:40.767Z,99.90
2023-05-08T19:07:08.951Z,99.90
2023-05-08T19:09:37.153Z,99.90
2023-05-08T19:12:05.199Z,99.90
2023-05-08T19:14:33.108Z,99.90
2023-05-08T19:17:01.356Z,99.90
2023-05-08T19:19:29.688Z,99.90
2023-05-08T19:21:58.425Z,99.90
2023-05-08T19:24:30.345Z,99.90
2023-05-08T19:26:59.490Z,99.90
2023-05-08T19:29:27.664Z,99.90
2023-05-08T19:31:57.159Z,99.90
2023-05-08T19:34:25.126Z,99.90
2023-05-08T19:36:53.532Z,99.90
2023-05-08T19:39:21.986Z,99.90
2023-05-08T19:41:50.480Z,99.90
2023-05-08T19:44:18.578Z,99.90
2023-05-08T19:46:46.994Z,99.90
2023-05-08T19:49:16.706Z,99.90
2023-05-08T19:51:46.313Z,99.90
2023-05-08T19:54:17.783Z,99.90
2023-05-08T19:56:47.230Z,99.90
2023-05-08T19:59:17.158Z,99.90
2023-05-08T20:01:45.900Z,99.90
2023-05-08T20:04:13.967Z,99.90
2023-05-08T20:06:45.123Z,99.90
2023-05-08T20:09:18.090Z,99.90
2023-05-08T20:11:48.157Z,99.90
2023-05-08T20:14:16.814Z,99.90
2023-05-08T20:16:46.181Z,99.90
2023-05-08T20:19:14.177Z,99.90
2023-05-08T20:21:42.516Z,99.90
2023-05-08T20:24:10.434Z,99.90
2023-05-08T20:26:38.599Z,99.90
2023-05-08T20:29:06.758Z,99.90
2023-05-08T20:31:35.174Z,99.90
2023-05-08T20:34:03.133Z,99.90
2023-05-08T20:36:31.986Z,99.90
2023-05-08T20:39:00.266Z,99.90
2023-05-08T20:41:28.713Z,99.90
2023-05-08T20:43:56.757Z,99.90
2023-05-08T20:46:24.944Z,99.90
2023-05-08T20:48:53.032Z,99.90
2023-05-08T20:51:21.806Z,99.90
2023-05-08T20:53:49.596Z,98.40
2023-05-08T20:56:19.110Z,98.30
2023-05-08T20:58:47.819Z,98.80
2023-05-08T21:01:16.308Z,99.20
2023-05-08T21:03:45.532Z,99.30
2023-05-08T21:06:14.012Z,99.30
2023-05-08T21:08:42.248Z,99.10
2023-05-08T21:11:13.469Z,98.70
2023-05-08T21:13:43.904Z,98.30
2023-05-08T21:16:12.691Z,98.10
2023-05-08T21:18:41.497Z,97.90
2023-05-08T21:21:18.515Z,97.80
2023-05-08T21:23:47.085Z,97.80
2023-05-08T21:26:15.050Z,97.70
2023-05-08T21:28:43.608Z,97.60
2023-05-08T21:31:11.726Z,97.50
2023-05-08T21:33:39.875Z,97.40
2023-05-08T21:36:07.977Z,97.60
2023-05-08T21:38:36.672Z,97.30
2023-05-08T21:41:08.759Z,97.20
2023-05-08T21:43:37.501Z,97.20
2023-05-08T21:46:06.533Z,97.20
2023-05-08T21:48:35.668Z,97.10
2023-05-08T21:51:03.778Z,96.90
2023-05-08T21:53:32.213Z,97.00
2023-05-08T21:56:00.695Z,96.90
2023-05-08T21:58:28.920Z,96.90
2023-05-08T22:00:58.514Z,96.70
2023-05-08T22:03:27.530Z,96.80
2023-05-08T22:06:01.931Z,97.00
2023-05-08T22:08:30.682Z,97.30
2023-05-08T22:10:58.558Z,97.40
2023-05-08T22:13:26.773Z,97.40
2023-05-08T22:15:54.716Z,97.40
2023-05-08T22:18:22.873Z,97.20
2023-05-08T22:20:50.809Z,97.10
2023-05-08T22:23:19.332Z,97.20
2023-05-08T22:25:47.271Z,97.40
2023-05-08T22:28:15.464Z,97.30
2023-05-08T22:30:43.567Z,97.10
2023-05-08T22:33:11.704Z,96.90
2023-05-08T22:35:39.757Z,96.60
2023-05-08T22:38:08.112Z,95.80
2023-05-08T22:40:36.394Z,95.50
2023-05-08T22:43:04.775Z,95.50
2023-05-08T22:45:33.644Z,95.70
2023-05-08T22:48:01.824Z,95.90
2023-05-08T22:50:29.736Z,96.00
2023-05-08T22:52:57.818Z,96.40
2023-05-08T22:55:25.777Z,96.70
2023-05-08T22:57:54.218Z,96.70
2023-05-08T23:00:22.323Z,96.40
2023-05-08T23:02:50.418Z,96.30
2023-05-08T23:05:18.314Z,96.40
2023-05-08T23:07:46.319Z,96.40
2023-05-08T23:10:15.125Z,96.50
2023-05-08T23:12:43.907Z,96.60
2023-05-08T23:15:12.785Z,97.10
2023-05-08T23:17:41.108Z,97.60
2023-05-08T23:20:09.711Z,97.60
2023-05-08T23:22:37.664Z,97.60
2023-05-08T23:25:06.150Z,97.50
2023-05-08T23:27:34.245Z,97.50
2023-05-08T23:30:02.170Z,97.50
2023-05-08T23:32:30.316Z,97.40
2023-05-08T23:34:58.260Z,97.40
2023-05-08T23:37:26.344Z,97.40
2023-05-08T23:39:55.214Z,97.40
2023-05-08T23:42:23.671Z,97.70
2023-05-08T23:44:51.748Z,97.50
2023-05-08T23:47:21.208Z,97.70
2023-05-08T23:49:49.145Z,97.60
2023-05-08T23:52:18.098Z,97.40
2023-05-08T23:54:45.994Z,97.40
2023-05-08T23:57:14.153Z,97.50
2023-05-08T23:59:42.119Z,97.80
